Hewlett Bay, New York
Current Conditions -  °F | °C
As of 9:16 AM on Monday 26 Jan 2015 (Local Time) from KJFK Reporting Station
Light Snow Light Snow  
Wind Chill: 13°   Ceiling: 1900
Heat Index: 27°   Visibility: 1.5mi
Dew Point: 19°   Wind: 18mph
Humidity: 74%   Direction: 40°NE
Pressure: 30.02"   Gusts: 24mph
Location:  40.637°N, 73.6912°W
Report Text: KJFK 261416Z 04016G21KT 1 1/2SM R04R/3500V5000FT -SN SCT012 BKN019 OVC036 M03/M07 A3002 RMK AO2 P0000 $
Loading
Personal Weather Stations






























Interactive Weather Map New forecast layout! Learn more

10-Day Weather Forecast

Advertisements
Track Severe Weather on mobile